sensor_id;sensor_type;location;lat;lon;timestamp;temperature;humidity
23713;DHT22;12035;49.978;8.298;2024-03-25T00:02:57;10.40;63.00
23713;DHT22;12035;49.978;8.298;2024-03-25T00:07:54;10.40;62.80
23713;DHT22;12035;49.978;8.298;2024-03-25T00:12:51;10.40;62.80
23713;DHT22;12035;49.978;8.298;2024-03-25T00:17:51;10.40;62.80
23713;DHT22;12035;49.978;8.298;2024-03-25T00:22:49;10.40;62.80
23713;DHT22;12035;49.978;8.298;2024-03-25T00:27:48;10.40;62.80
23713;DHT22;12035;49.978;8.298;2024-03-25T00:32:45;10.40;62.80
23713;DHT22;12035;49.978;8.298;2024-03-25T00:37:42;10.40;62.80
23713;DHT22;12035;49.978;8.298;2024-03-25T00:42:41;10.40;62.80
23713;DHT22;12035;49.978;8.298;2024-03-25T00:47:38;10.40;62.60
23713;DHT22;12035;49.978;8.298;2024-03-25T00:52:35;10.30;62.60
23713;DHT22;12035;49.978;8.298;2024-03-25T00:57:33;10.30;62.60
23713;DHT22;12035;49.978;8.298;2024-03-25T01:02:31;10.30;62.60
23713;DHT22;12035;49.978;8.298;2024-03-25T01:07:28;10.30;62.50
23713;DHT22;12035;49.978;8.298;2024-03-25T01:12:25;10.30;62.60
23713;DHT22;12035;49.978;8.298;2024-03-25T01:17:22;10.30;62.80
23713;DHT22;12035;49.978;8.298;2024-03-25T01:22:21;10.20;62.90
23713;DHT22;12035;49.978;8.298;2024-03-25T01:27:18;10.20;63.00
23713;DHT22;12035;49.978;8.298;2024-03-25T01:32:15;10.20;63.20
23713;DHT22;12035;49.978;8.298;2024-03-25T01:37:12;10.20;63.30
23713;DHT22;12035;49.978;8.298;2024-03-25T01:42:11;10.10;63.40
23713;DHT22;12035;49.978;8.298;2024-03-25T01:47:08;10.10;63.60
23713;DHT22;12035;49.978;8.298;2024-03-25T01:52:05;10.10;63.70
23713;DHT22;12035;49.978;8.298;2024-03-25T01:57:03;10.00;63.80
23713;DHT22;12035;49.978;8.298;2024-03-25T02:02:02;10.00;63.90
23713;DHT22;12035;49.978;8.298;2024-03-25T02:07:00;10.00;63.90
23713;DHT22;12035;49.978;8.298;2024-03-25T02:11:58;9.90;63.90
23713;DHT22;12035;49.978;8.298;2024-03-25T02:16:55;9.90;64.00
23713;DHT22;12035;49.978;8.298;2024-03-25T02:21:54;9.90;64.00
23713;DHT22;12035;49.978;8.298;2024-03-25T02:26:52;9.80;64.00
23713;DHT22;12035;49.978;8.298;2024-03-25T02:31:49;9.80;64.10
23713;DHT22;12035;49.978;8.298;2024-03-25T02:36:49;9.70;64.10
23713;DHT22;12035;49.978;8.298;2024-03-25T02:41:46;9.70;64.30
23713;DHT22;12035;49.978;8.298;2024-03-25T02:46:45;9.60;64.50
23713;DHT22;12035;49.978;8.298;2024-03-25T02:51:42;9.60;64.60
23713;DHT22;12035;49.978;8.298;2024-03-25T02:56:40;9.70;65.50
23713;DHT22;12035;49.978;8.298;2024-03-25T03:01:37;9.60;64.80
23713;DHT22;12035;49.978;8.298;2024-03-25T03:06:35;9.60;65.50
23713;DHT22;12035;49.978;8.298;2024-03-25T03:11:32;9.60;64.70
23713;DHT22;12035;49.978;8.298;2024-03-25T03:16:29;9.60;64.70
23713;DHT22;12035;49.978;8.298;2024-03-25T03:21:27;9.50;64.70
23713;DHT22;12035;49.978;8.298;2024-03-25T03:26:27;9.50;65.00
23713;DHT22;12035;49.978;8.298;2024-03-25T03:31:26;9.50;65.20
23713;DHT22;12035;49.978;8.298;2024-03-25T03:36:23;9.40;65.20
23713;DHT22;12035;49.978;8.298;2024-03-25T03:41:21;9.40;65.40
23713;DHT22;12035;49.978;8.298;2024-03-25T03:46:19;9.40;65.40
23713;DHT22;12035;49.978;8.298;2024-03-25T03:51:16;9.30;65.60
23713;DHT22;12035;49.978;8.298;2024-03-25T03:56:13;9.30;65.60
23713;DHT22;12035;49.978;8.298;2024-03-25T04:01:17;9.30;65.70
23713;DHT22;12035;49.978;8.298;2024-03-25T04:06:15;9.20;65.80
23713;DHT22;12035;49.978;8.298;2024-03-25T04:11:12;9.10;65.60
23713;DHT22;12035;49.978;8.298;2024-03-25T04:16:10;9.10;65.80
23713;DHT22;12035;49.978;8.298;2024-03-25T04:21:12;9.00;65.80
23713;DHT22;12035;49.978;8.298;2024-03-25T04:26:09;8.90;66.00
23713;DHT22;12035;49.978;8.298;2024-03-25T04:31:07;8.90;65.90
23713;DHT22;12035;49.978;8.298;2024-03-25T04:36:05;8.80;66.00
23713;DHT22;12035;49.978;8.298;2024-03-25T04:41:04;8.80;66.00
23713;DHT22;12035;49.978;8.298;2024-03-25T04:46:00;8.70;66.20
23713;DHT22;12035;49.978;8.298;2024-03-25T04:50:57;8.70;66.20
23713;DHT22;12035;49.978;8.298;2024-03-25T04:55:53;8.60;66.30
23713;DHT22;12035;49.978;8.298;2024-03-25T05:00:50;8.60;66.40
23713;DHT22;12035;49.978;8.298;2024-03-25T05:05:46;8.60;66.50
23713;DHT22;12035;49.978;8.298;2024-03-25T05:10:42;8.50;66.60
23713;DHT22;12035;49.978;8.298;2024-03-25T05:15:38;8.50;66.80
23713;DHT22;12035;49.978;8.298;2024-03-25T05:20:36;8.50;66.70
23713;DHT22;12035;49.978;8.298;2024-03-25T05:25:32;8.40;66.70
23713;DHT22;12035;49.978;8.298;2024-03-25T05:30:28;8.40;66.70
23713;DHT22;12035;49.978;8.298;2024-03-25T05:35:24;8.40;66.80
23713;DHT22;12035;49.978;8.298;2024-03-25T05:40:22;8.40;66.90
23713;DHT22;12035;49.978;8.298;2024-03-25T05:45:18;8.40;67.10
23713;DHT22;12035;49.978;8.298;2024-03-25T05:50:14;8.40;67.10
23713;DHT22;12035;49.978;8.298;2024-03-25T05:55:11;8.50;67.90
23713;DHT22;12035;49.978;8.298;2024-03-25T06:00:10;8.80;69.50
23713;DHT22;12035;49.978;8.298;2024-03-25T06:05:07;9.50;70.00
23713;DHT22;12035;49.978;8.298;2024-03-25T06:10:04;10.30;70.40
23713;DHT22;12035;49.978;8.298;2024-03-25T06:15:01;11.20;70.00
23713;DHT22;12035;49.978;8.298;2024-03-25T06:19:58;12.10;69.30
23713;DHT22;12035;49.978;8.298;2024-03-25T06:24:54;13.10;67.60
23713;DHT22;12035;49.978;8.298;2024-03-25T06:29:50;14.00;67.10
23713;DHT22;12035;49.978;8.298;2024-03-25T06:34:46;14.90;65.30
23713;DHT22;12035;49.978;8.298;2024-03-25T06:39:44;15.80;63.90
23713;DHT22;12035;49.978;8.298;2024-03-25T06:44:40;16.50;61.90
23713;DHT22;12035;49.978;8.298;2024-03-25T06:49:36;17.20;60.40
23713;DHT22;12035;49.978;8.298;2024-03-25T06:54:32;17.80;59.10
23713;DHT22;12035;49.978;8.298;2024-03-25T06:59:29;18.30;58.20
23713;DHT22;12035;49.978;8.298;2024-03-25T07:04:26;18.80;57.70
23713;DHT22;12035;49.978;8.298;2024-03-25T07:09:22;19.20;56.10
23713;DHT22;12035;49.978;8.298;2024-03-25T07:14:18;19.60;55.30
23713;DHT22;12035;49.978;8.298;2024-03-25T07:19:15;19.90;54.60
23713;DHT22;12035;49.978;8.298;2024-03-25T07:24:11;20.30;53.90
23713;DHT22;12035;49.978;8.298;2024-03-25T07:29:07;20.70;52.60
23713;DHT22;12035;49.978;8.298;2024-03-25T07:34:04;20.90;52.30
23713;DHT22;12035;49.978;8.298;2024-03-25T07:39:01;21.20;51.30
23713;DHT22;12035;49.978;8.298;2024-03-25T07:43:57;21.40;50.00
23713;DHT22;12035;49.978;8.298;2024-03-25T07:48:53;21.40;49.60
23713;DHT22;12035;49.978;8.298;2024-03-25T07:53:49;21.60;49.50
23713;DHT22;12035;49.978;8.298;2024-03-25T07:58:47;21.70;49.00
23713;DHT22;12035;49.978;8.298;2024-03-25T08:03:43;21.90;47.60
23713;DHT22;12035;49.978;8.298;2024-03-25T08:08:39;22.00;47.30
23713;DHT22;12035;49.978;8.298;2024-03-25T08:13:35;22.10;46.90
23713;DHT22;12035;49.978;8.298;2024-03-25T08:18:33;22.20;46.80
23713;DHT22;12035;49.978;8.298;2024-03-25T08:23:29;22.30;46.40
23713;DHT22;12035;49.978;8.298;2024-03-25T08:28:25;22.50;46.10
23713;DHT22;12035;49.978;8.298;2024-03-25T08:33:22;22.60;46.20
23713;DHT22;12035;49.978;8.298;2024-03-25T08:38:19;22.80;45.90
23713;DHT22;12035;49.978;8.298;2024-03-25T08:43:15;22.80;44.80
23713;DHT22;12035;49.978;8.298;2024-03-25T08:48:11;22.80;45.00
23713;DHT22;12035;49.978;8.298;2024-03-25T08:53:07;22.80;44.00
23713;DHT22;12035;49.978;8.298;2024-03-25T08:58:05;22.90;44.50
23713;DHT22;12035;49.978;8.298;2024-03-25T09:03:01;22.90;43.40
23713;DHT22;12035;49.978;8.298;2024-03-25T09:07:58;22.70;42.50
23713;DHT22;12035;49.978;8.298;2024-03-25T09:12:54;22.50;42.30
23713;DHT22;12035;49.978;8.298;2024-03-25T09:17:51;22.00;42.80
23713;DHT22;12035;49.978;8.298;2024-03-25T09:22:47;21.80;42.20
23713;DHT22;12035;49.978;8.298;2024-03-25T09:27:45;21.50;42.40
23713;DHT22;12035;49.978;8.298;2024-03-25T09:32:41;21.30;44.80
23713;DHT22;12035;49.978;8.298;2024-03-25T09:37:39;21.00;43.30
23713;DHT22;12035;49.978;8.298;2024-03-25T09:42:42;20.80;43.10
23713;DHT22;12035;49.978;8.298;2024-03-25T09:47:42;20.70;42.90
23713;DHT22;12035;49.978;8.298;2024-03-25T09:52:42;20.50;42.90
23713;DHT22;12035;49.978;8.298;2024-03-25T09:57:38;20.30;43.40
23713;DHT22;12035;49.978;8.298;2024-03-25T10:02:38;20.20;43.40
23713;DHT22;12035;49.978;8.298;2024-03-25T10:07:35;20.10;43.40
23713;DHT22;12035;49.978;8.298;2024-03-25T10:12:33;20.20;43.00
23713;DHT22;12035;49.978;8.298;2024-03-25T10:17:31;20.30;42.30
23713;DHT22;12035;49.978;8.298;2024-03-25T10:22:27;20.20;42.30
23713;DHT22;12035;49.978;8.298;2024-03-25T10:27:24;20.00;41.20
23713;DHT22;12035;49.978;8.298;2024-03-25T10:32:21;19.90;41.40
23713;DHT22;12035;49.978;8.298;2024-03-25T10:37:18;19.70;40.90
23713;DHT22;12035;49.978;8.298;2024-03-25T10:42:18;19.60;41.60
23713;DHT22;12035;49.978;8.298;2024-03-25T10:47:21;19.50;41.60
23713;DHT22;12035;49.978;8.298;2024-03-25T10:52:21;19.50;42.10
23713;DHT22;12035;49.978;8.298;2024-03-25T10:57:19;19.60;41.80
23713;DHT22;12035;49.978;8.298;2024-03-25T11:02:17;19.60;41.80
23713;DHT22;12035;49.978;8.298;2024-03-25T11:07:15;19.70;41.40
23713;DHT22;12035;49.978;8.298;2024-03-25T11:12:12;19.80;41.20
23713;DHT22;12035;49.978;8.298;2024-03-25T11:17:14;19.80;41.60
23713;DHT22;12035;49.978;8.298;2024-03-25T11:22:11;19.90;41.00
23713;DHT22;12035;49.978;8.298;2024-03-25T11:27:09;19.90;41.10
23713;DHT22;12035;49.978;8.298;2024-03-25T11:32:06;20.00;41.20
23713;DHT22;12035;49.978;8.298;2024-03-25T11:37:02;20.10;40.30
23713;DHT22;12035;49.978;8.298;2024-03-25T11:41:59;20.00;40.80
23713;DHT22;12035;49.978;8.298;2024-03-25T11:46:57;19.90;39.60
23713;DHT22;12035;49.978;8.298;2024-03-25T11:51:53;19.80;40.00
23713;DHT22;12035;49.978;8.298;2024-03-25T11:56:50;19.70;40.20
23713;DHT22;12035;49.978;8.298;2024-03-25T12:01:46;19.60;39.60
23713;DHT22;12035;49.978;8.298;2024-03-25T12:06:43;19.50;41.10
23713;DHT22;12035;49.978;8.298;2024-03-25T12:11:40;19.30;39.60
23713;DHT22;12035;49.978;8.298;2024-03-25T12:16:36;19.30;40.30
23713;DHT22;12035;49.978;8.298;2024-03-25T12:21:32;19.20;38.90
23713;DHT22;12035;49.978;8.298;2024-03-25T12:26:30;19.10;39.10
23713;DHT22;12035;49.978;8.298;2024-03-25T12:31:26;19.00;39.30
23713;DHT22;12035;49.978;8.298;2024-03-25T12:36:23;18.90;39.70
23713;DHT22;12035;49.978;8.298;2024-03-25T12:41:22;18.90;39.70
23713;DHT22;12035;49.978;8.298;2024-03-25T12:46:20;18.80;39.10
23713;DHT22;12035;49.978;8.298;2024-03-25T12:51:16;18.70;38.40
23713;DHT22;12035;49.978;8.298;2024-03-25T12:56:12;18.40;38.10
23713;DHT22;12035;49.978;8.298;2024-03-25T13:01:08;18.10;38.90
23713;DHT22;12035;49.978;8.298;2024-03-25T13:06:06;17.80;38.50
23713;DHT22;12035;49.978;8.298;2024-03-25T13:11:02;17.60;39.00
23713;DHT22;12035;49.978;8.298;2024-03-25T13:15:58;17.50;40.30
23713;DHT22;12035;49.978;8.298;2024-03-25T13:20:55;17.60;40.30
23713;DHT22;12035;49.978;8.298;2024-03-25T13:25:52;17.50;39.80
23713;DHT22;12035;49.978;8.298;2024-03-25T13:30:48;17.30;39.70
23713;DHT22;12035;49.978;8.298;2024-03-25T13:35:44;17.20;39.20
23713;DHT22;12035;49.978;8.298;2024-03-25T13:40:41;17.00;39.60
23713;DHT22;12035;49.978;8.298;2024-03-25T13:45:46;16.80;39.60
23713;DHT22;12035;49.978;8.298;2024-03-25T13:50:43;16.60;39.20
23713;DHT22;12035;49.978;8.298;2024-03-25T13:55:40;16.50;39.00
23713;DHT22;12035;49.978;8.298;2024-03-25T14:00:36;16.40;38.90
23713;DHT22;12035;49.978;8.298;2024-03-25T14:05:34;16.40;39.70
23713;DHT22;12035;49.978;8.298;2024-03-25T14:10:30;16.40;39.70
23713;DHT22;12035;49.978;8.298;2024-03-25T14:15:26;16.40;39.50
23713;DHT22;12035;49.978;8.298;2024-03-25T14:20:22;16.40;39.40
23713;DHT22;12035;49.978;8.298;2024-03-25T14:25:21;16.40;40.50
23713;DHT22;12035;49.978;8.298;2024-03-25T14:30:17;16.40;40.70
23713;DHT22;12035;49.978;8.298;2024-03-25T14:35:13;16.40;40.60
23713;DHT22;12035;49.978;8.298;2024-03-25T14:40:10;16.30;40.80
23713;DHT22;12035;49.978;8.298;2024-03-25T14:45:08;16.40;41.20
23713;DHT22;12035;49.978;8.298;2024-03-25T14:50:05;16.40;40.20
23713;DHT22;12035;49.978;8.298;2024-03-25T14:55:01;16.50;39.90
23713;DHT22;12035;49.978;8.298;2024-03-25T14:59:57;16.50;39.40
23713;DHT22;12035;49.978;8.298;2024-03-25T15:04:55;16.60;39.20
23713;DHT22;12035;49.978;8.298;2024-03-25T15:09:51;16.60;39.10
23713;DHT22;12035;49.978;8.298;2024-03-25T15:14:47;16.60;39.40
23713;DHT22;12035;49.978;8.298;2024-03-25T15:19:43;16.60;39.60
23713;DHT22;12035;49.978;8.298;2024-03-25T15:24:40;16.60;39.20
23713;DHT22;12035;49.978;8.298;2024-03-25T15:29:37;16.60;38.80
23713;DHT22;12035;49.978;8.298;2024-03-25T15:34:34;16.60;38.40
23713;DHT22;12035;49.978;8.298;2024-03-25T15:39:30;16.60;38.40
23713;DHT22;12035;49.978;8.298;2024-03-25T15:44:27;16.70;38.30
23713;DHT22;12035;49.978;8.298;2024-03-25T15:49:23;16.70;38.10
23713;DHT22;12035;49.978;8.298;2024-03-25T15:54:19;16.80;38.20
23713;DHT22;12035;49.978;8.298;2024-03-25T15:59:15;16.80;38.10
23713;DHT22;12035;49.978;8.298;2024-03-25T16:04:13;16.90;38.40
23713;DHT22;12035;49.978;8.298;2024-03-25T16:09:09;16.90;38.30
23713;DHT22;12035;49.978;8.298;2024-03-25T16:14:05;16.90;38.30
23713;DHT22;12035;49.978;8.298;2024-03-25T16:19:01;16.90;38.50
23713;DHT22;12035;49.978;8.298;2024-03-25T16:23:59;16.90;38.50
23713;DHT22;12035;49.978;8.298;2024-03-25T16:28:55;16.80;38.60
23713;DHT22;12035;49.978;8.298;2024-03-25T16:33:51;16.80;38.70
23713;DHT22;12035;49.978;8.298;2024-03-25T16:38:47;16.80;39.00
23713;DHT22;12035;49.978;8.298;2024-03-25T16:43:45;16.80;39.10
23713;DHT22;12035;49.978;8.298;2024-03-25T16:48:41;16.80;38.90
23713;DHT22;12035;49.978;8.298;2024-03-25T16:53:37;16.80;37.60
23713;DHT22;12035;49.978;8.298;2024-03-25T16:58:34;16.60;37.40
23713;DHT22;12035;49.978;8.298;2024-03-25T17:03:32;16.50;37.70
23713;DHT22;12035;49.978;8.298;2024-03-25T17:08:28;16.30;38.00
23713;DHT22;12035;49.978;8.298;2024-03-25T17:13:24;16.10;38.40
23713;DHT22;12035;49.978;8.298;2024-03-25T17:18:25;16.00;38.70
23713;DHT22;12035;49.978;8.298;2024-03-25T17:23:22;15.90;39.10
23713;DHT22;12035;49.978;8.298;2024-03-25T17:28:19;15.70;39.20
23713;DHT22;12035;49.978;8.298;2024-03-25T17:33:16;15.60;39.20
23713;DHT22;12035;49.978;8.298;2024-03-25T17:38:12;15.40;39.40
23713;DHT22;12035;49.978;8.298;2024-03-25T17:43:09;15.30;39.50
23713;DHT22;12035;49.978;8.298;2024-03-25T17:48:06;15.20;39.80
23713;DHT22;12035;49.978;8.298;2024-03-25T17:53:03;15.10;39.90
23713;DHT22;12035;49.978;8.298;2024-03-25T17:57:59;15.10;40.00
23713;DHT22;12035;49.978;8.298;2024-03-25T18:02:57;15.00;40.00
23713;DHT22;12035;49.978;8.298;2024-03-25T18:07:53;14.90;40.20
23713;DHT22;12035;49.978;8.298;2024-03-25T18:12:49;14.90;40.20
23713;DHT22;12035;49.978;8.298;2024-03-25T18:17:45;14.80;40.20
23713;DHT22;12035;49.978;8.298;2024-03-25T18:22:42;14.80;40.30
23713;DHT22;12035;49.978;8.298;2024-03-25T18:27:39;14.80;40.30
23713;DHT22;12035;49.978;8.298;2024-03-25T18:32:35;14.70;40.20
23713;DHT22;12035;49.978;8.298;2024-03-25T18:37:31;14.60;40.30
23713;DHT22;12035;49.978;8.298;2024-03-25T18:42:29;14.50;40.60
23713;DHT22;12035;49.978;8.298;2024-03-25T18:47:28;14.30;40.60
23713;DHT22;12035;49.978;8.298;2024-03-25T18:52:24;14.10;40.90
23713;DHT22;12035;49.978;8.298;2024-03-25T18:57:20;14.00;41.20
23713;DHT22;12035;49.978;8.298;2024-03-25T19:02:18;13.90;41.50
23713;DHT22;12035;49.978;8.298;2024-03-25T19:07:14;13.70;41.70
23713;DHT22;12035;49.978;8.298;2024-03-25T19:12:10;13.60;42.00
23713;DHT22;12035;49.978;8.298;2024-03-25T19:17:06;13.60;42.40
23713;DHT22;12035;49.978;8.298;2024-03-25T19:22:04;13.50;42.70
23713;DHT22;12035;49.978;8.298;2024-03-25T19:27:00;13.50;43.00
23713;DHT22;12035;49.978;8.298;2024-03-25T19:31:56;13.30;43.20
23713;DHT22;12035;49.978;8.298;2024-03-25T19:36:52;13.30;43.40
23713;DHT22;12035;49.978;8.298;2024-03-25T19:41:50;13.20;43.50
23713;DHT22;12035;49.978;8.298;2024-03-25T19:46:46;13.20;43.70
23713;DHT22;12035;49.978;8.298;2024-03-25T19:51:42;13.10;43.90
23713;DHT22;12035;49.978;8.298;2024-03-25T19:56:38;13.00;44.00
23713;DHT22;12035;49.978;8.298;2024-03-25T20:01:35;12.90;44.10
23713;DHT22;12035;49.978;8.298;2024-03-25T20:06:32;12.80;44.30
23713;DHT22;12035;49.978;8.298;2024-03-25T20:11:28;12.80;44.60
23713;DHT22;12035;49.978;8.298;2024-03-25T20:16:24;12.70;44.70
23713;DHT22;12035;49.978;8.298;2024-03-25T20:21:21;12.60;44.80
23713;DHT22;12035;49.978;8.298;2024-03-25T20:26:17;12.60;44.90
23713;DHT22;12035;49.978;8.298;2024-03-25T20:31:14;12.50;45.00
23713;DHT22;12035;49.978;8.298;2024-03-25T20:36:10;12.50;45.20
23713;DHT22;12035;49.978;8.298;2024-03-25T20:41:07;12.40;45.00
23713;DHT22;12035;49.978;8.298;2024-03-25T20:46:04;12.40;45.30
23713;DHT22;12035;49.978;8.298;2024-03-25T20:51:00;12.30;45.40
23713;DHT22;12035;49.978;8.298;2024-03-25T20:55:56;12.20;45.40
23713;DHT22;12035;49.978;8.298;2024-03-25T21:00:54;12.20;45.60
23713;DHT22;12035;49.978;8.298;2024-03-25T21:05:53;12.20;45.70
23713;DHT22;12035;49.978;8.298;2024-03-25T21:10:49;12.20;45.70
23713;DHT22;12035;49.978;8.298;2024-03-25T21:15:46;12.20;45.70
23713;DHT22;12035;49.978;8.298;2024-03-25T21:20:43;12.10;45.70
23713;DHT22;12035;49.978;8.298;2024-03-25T21:25:40;12.10;45.70
23713;DHT22;12035;49.978;8.298;2024-03-25T21:30:38;12.10;45.80
23713;DHT22;12035;49.978;8.298;2024-03-25T21:35:35;12.00;45.90
23713;DHT22;12035;49.978;8.298;2024-03-25T21:40:33;12.00;46.00
23713;DHT22;12035;49.978;8.298;2024-03-25T21:45:29;11.90;46.10
23713;DHT22;12035;49.978;8.298;2024-03-25T21:50:25;11.90;46.10
23713;DHT22;12035;49.978;8.298;2024-03-25T21:55:21;11.90;46.10
23713;DHT22;12035;49.978;8.298;2024-03-25T22:00:18;11.80;46.20
23713;DHT22;12035;49.978;8.298;2024-03-25T22:05:15;11.80;46.30
23713;DHT22;12035;49.978;8.298;2024-03-25T22:10:11;11.80;46.40
23713;DHT22;12035;49.978;8.298;2024-03-25T22:15:07;11.80;46.60
23713;DHT22;12035;49.978;8.298;2024-03-25T22:20:07;11.80;46.80
23713;DHT22;12035;49.978;8.298;2024-03-25T22:25:04;11.80;47.10
23713;DHT22;12035;49.978;8.298;2024-03-25T22:30:00;11.70;47.30
23713;DHT22;12035;49.978;8.298;2024-03-25T22:34:56;11.70;47.40
23713;DHT22;12035;49.978;8.298;2024-03-25T22:39:54;11.60;47.70
23713;DHT22;12035;49.978;8.298;2024-03-25T22:44:50;11.50;47.90
23713;DHT22;12035;49.978;8.298;2024-03-25T22:49:47;11.40;48.00
23713;DHT22;12035;49.978;8.298;2024-03-25T22:54:43;11.30;48.10
23713;DHT22;12035;49.978;8.298;2024-03-25T22:59:40;11.20;48.40
23713;DHT22;12035;49.978;8.298;2024-03-25T23:04:36;11.10;48.80
23713;DHT22;12035;49.978;8.298;2024-03-25T23:09:32;10.90;49.00
23713;DHT22;12035;49.978;8.298;2024-03-25T23:14:28;10.80;49.30
23713;DHT22;12035;49.978;8.298;2024-03-25T23:19:26;10.70;49.70
23713;DHT22;12035;49.978;8.298;2024-03-25T23:24:22;10.60;49.80
23713;DHT22;12035;49.978;8.298;2024-03-25T23:29:18;10.50;50.70
23713;DHT22;12035;49.978;8.298;2024-03-25T23:34:14;10.40;50.50
23713;DHT22;12035;49.978;8.298;2024-03-25T23:39:12;10.30;50.90
23713;DHT22;12035;49.978;8.298;2024-03-25T23:44:08;10.20;51.40
23713;DHT22;12035;49.978;8.298;2024-03-25T23:49:04;10.10;51.40
23713;DHT22;12035;49.978;8.298;2024-03-25T23:54:00;10.10;51.60
23713;DHT22;12035;49.978;8.298;2024-03-25T23:58:57;10.00;51.80
